Time;durP1;ratioP1;P1;durP2;ratioP2;P2;SDS_P1;SDS_P2;PMS_P1;PMS_P2;Temp;Humidity;BMP_temperature;BMP_pressure;BME280_temperature;BME280_humidity;BME280_pressure;Samples;Min_cycle;Max_cycle;Signal;HPM_P1;HPM_P2
2023/07/18 00:00:14;;;;;;;2.03;1.83;;;25.90;51.50;25.40;97064.00;;;;5076576;28;20226;-83
2023/07/18 00:02:43;;;;;;;2.03;1.93;;;25.90;51.60;25.40;97063.00;;;;5059033;28;20224;-83
2023/07/18 00:05:12;;;;;;;2.33;2.10;;;25.80;51.60;25.40;97062.00;;;;5084418;28;20195;-83
2023/07/18 00:07:41;;;;;;;2.17;1.80;;;25.80;51.50;25.30;97059.00;;;;5078192;28;20234;-83
2023/07/18 00:10:10;;;;;;;2.00;1.80;;;25.80;51.60;25.30;97050.00;;;;5076916;28;20210;-83
2023/07/18 00:12:38;;;;;;;2.37;1.87;;;25.80;51.60;25.30;97052.00;;;;5079307;28;20212;-83
2023/07/18 00:15:09;;;;;;;2.07;1.87;;;25.80;51.80;25.30;97053.00;;;;5056933;28;20222;-83
2023/07/18 00:17:38;;;;;;;2.40;1.90;;;25.70;51.60;25.30;97055.00;;;;5073307;28;20223;-83
2023/07/18 00:20:12;;;;;;;1.77;1.60;;;25.70;51.40;25.30;97049.00;;;;5076870;28;20196;-83
2023/07/18 00:22:40;;;;;;;3.00;1.93;;;25.70;51.20;25.30;97048.00;;;;5074665;28;20753;-83
2023/07/18 00:25:11;;;;;;;2.27;2.07;;;25.70;51.10;25.30;97050.00;;;;5066793;28;20739;-83
2023/07/18 00:27:39;;;;;;;1.97;1.70;;;25.70;51.00;25.30;97053.00;;;;5076823;28;20631;-83
2023/07/18 00:30:09;;;;;;;2.90;1.90;;;25.70;50.70;25.20;97057.00;;;;5067072;28;20192;-83
2023/07/18 00:32:37;;;;;;;3.23;1.90;;;25.70;50.80;25.20;97062.00;;;;5073458;28;20192;-83
2023/07/18 00:35:07;;;;;;;2.17;1.83;;;25.70;50.70;25.20;97060.00;;;;5072017;28;20192;-83
2023/07/18 00:37:34;;;;;;;1.83;1.73;;;25.60;50.40;25.20;97052.00;;;;5076757;28;20228;-83
2023/07/18 00:40:05;;;;;;;2.10;1.90;;;25.60;50.50;25.20;97055.00;;;;5084508;28;20593;-84
2023/07/18 00:42:32;;;;;;;4.47;2.00;;;25.60;50.30;25.20;97060.00;;;;5083338;28;20203;-82
2023/07/18 00:44:59;;;;;;;3.43;1.60;;;25.60;50.30;25.10;97057.00;;;;5084580;28;20563;-83
2023/07/18 00:47:27;;;;;;;1.80;1.70;;;25.60;50.10;25.10;97061.00;;;;5062676;28;20231;-83
2023/07/18 00:49:54;;;;;;;3.07;1.90;;;25.60;50.00;25.10;97060.00;;;;5070084;28;20202;-83
2023/07/18 00:52:23;;;;;;;2.27;1.90;;;25.50;50.10;25.10;97069.00;;;;5075664;28;20220;-83
2023/07/18 00:54:51;;;;;;;1.83;1.57;;;25.50;50.30;25.00;97073.00;;;;5075844;28;20199;-82
2023/07/18 00:57:19;;;;;;;2.30;2.00;;;25.50;50.40;25.00;97061.00;;;;5074839;28;20660;-83
2023/07/18 00:59:46;;;;;;;4.03;2.00;;;25.50;50.60;25.00;97058.00;;;;5088273;28;20207;-83
2023/07/18 01:02:13;;;;;;;3.00;1.63;;;25.40;50.80;24.90;97061.00;;;;5076831;28;20196;-83
2023/07/18 01:04:41;;;;;;;2.73;2.53;;;25.40;50.70;24.90;97061.00;;;;5087019;28;20223;-83
2023/07/18 01:07:09;;;;;;;2.77;2.00;;;25.40;51.20;24.90;97063.00;;;;5077315;28;20216;-83
2023/07/18 01:09:37;;;;;;;3.57;2.00;;;25.40;50.80;24.80;97058.00;;;;5080986;28;20657;-83
2023/07/18 01:12:06;;;;;;;2.00;1.80;;;25.30;51.40;24.80;97064.00;;;;5081489;28;20191;-83
2023/07/18 01:14:33;;;;;;;2.70;1.90;;;25.30;50.90;24.80;97050.00;;;;5080080;28;20202;-83
2023/07/18 01:17:03;;;;;;;3.17;2.10;;;25.20;50.90;24.80;97049.00;;;;5071551;28;20211;-83
2023/07/18 01:19:31;;;;;;;4.57;1.93;;;25.20;51.00;24.70;97055.00;;;;5069030;28;20249;-83
2023/07/18 01:22:00;;;;;;;2.37;2.17;;;25.20;51.40;24.70;97063.00;;;;5070428;28;20274;-83
2023/07/18 01:24:27;;;;;;;1.90;1.50;;;25.20;51.80;24.70;97056.00;;;;5068588;28;20303;-83
2023/07/18 01:26:54;;;;;;;2.00;1.90;;;25.20;52.00;24.70;97057.00;;;;5078797;28;20275;-83
2023/07/18 01:29:22;;;;;;;2.73;2.40;;;25.10;52.10;24.60;97042.00;;;;5075168;28;20192;-83
2023/07/18 01:31:49;;;;;;;2.03;1.70;;;25.10;52.10;24.60;97052.00;;;;5075395;28;20283;-83
2023/07/18 01:34:16;;;;;;;3.60;1.90;;;25.10;52.10;24.60;97049.00;;;;5073051;28;20702;-83
2023/07/18 01:36:44;;;;;;;2.37;1.83;;;25.10;52.30;24.60;97052.00;;;;5073286;28;20302;-83
2023/07/18 01:39:12;;;;;;;1.80;1.70;;;25.10;52.30;24.60;97045.00;;;;5073480;28;20195;-83
2023/07/18 01:41:40;;;;;;;2.20;2.00;;;25.00;53.10;24.50;97042.00;;;;5076072;28;20665;-83
2023/07/18 01:44:08;;;;;;;3.37;2.40;;;25.00;52.50;24.50;97042.00;;;;5072788;28;20752;-83
2023/07/18 01:46:35;;;;;;;2.40;2.07;;;25.00;52.60;24.50;97042.00;;;;5083163;28;20628;-83
2023/07/18 01:49:02;;;;;;;2.23;2.03;;;25.00;52.60;24.50;97041.00;;;;5073577;28;20293;-83
2023/07/18 01:51:29;;;;;;;3.10;2.20;;;25.00;52.80;24.50;97034.00;;;;5077767;28;20204;-83
2023/07/18 01:53:57;;;;;;;2.67;2.10;;;25.00;52.90;24.50;97031.00;;;;5072021;28;20203;-83
2023/07/18 01:56:25;;;;;;;3.30;2.20;;;24.90;53.00;24.50;97015.00;;;;5071874;28;20216;-83
2023/07/18 01:58:53;;;;;;;2.87;2.40;;;24.90;53.20;24.40;97014.00;;;;5075778;28;20201;-83
2023/07/18 02:01:20;;;;;;;2.63;2.03;;;24.90;53.30;24.40;97015.00;;;;5074514;28;20200;-83
2023/07/18 02:03:47;;;;;;;2.13;1.70;;;24.90;53.30;24.40;97020.00;;;;5072236;28;20232;-83
2023/07/18 02:06:14;;;;;;;3.17;2.50;;;24.90;53.20;24.30;97026.00;;;;5081136;28;20207;-83
2023/07/18 02:08:41;;;;;;;3.40;2.50;;;24.90;53.20;24.30;97023.00;;;;5071456;28;20200;-83
2023/07/18 02:11:08;;;;;;;2.37;1.80;;;24.80;53.30;24.30;97029.00;;;;5079381;28;20281;-83
2023/07/18 02:13:37;;;;;;;1.90;1.80;;;24.80;53.50;24.20;97025.00;;;;5074460;28;20210;-83
2023/07/18 02:16:04;;;;;;;3.07;2.13;;;24.70;53.60;24.20;97020.00;;;;5074023;28;20771;-83
2023/07/18 02:18:31;;;;;;;4.50;2.07;;;24.70;53.70;24.10;97021.00;;;;5071202;28;20210;-83
2023/07/18 02:20:59;;;;;;;3.33;2.47;;;24.70;53.60;24.10;97030.00;;;;5078091;28;20763;-83
2023/07/18 02:23:26;;;;;;;2.47;1.83;;;24.60;53.70;24.00;97028.00;;;;5075220;28;20229;-83
2023/07/18 02:25:54;;;;;;;2.47;2.27;;;24.60;54.00;24.00;97033.00;;;;5075124;28;20306;-84
2023/07/18 02:28:21;;;;;;;3.00;2.43;;;24.60;54.20;24.00;97026.00;;;;5082839;28;20203;-83
2023/07/18 02:30:52;;;;;;;2.33;2.13;;;24.50;54.40;23.90;97028.00;;;;5086330;28;20581;-83
2023/07/18 02:33:19;;;;;;;2.40;2.20;;;24.50;54.50;23.90;97030.00;;;;5089749;28;20259;-83
2023/07/18 02:35:49;;;;;;;2.10;1.90;;;24.50;54.50;23.90;97032.00;;;;5074445;28;20216;-83
2023/07/18 02:38:16;;;;;;;2.60;1.97;;;24.40;54.80;23.90;97029.00;;;;5080462;28;20706;-83
2023/07/18 02:40:44;;;;;;;4.10;2.33;;;24.40;54.80;23.90;97033.00;;;;5078424;28;20656;-83
2023/07/18 02:43:11;;;;;;;2.13;1.93;;;24.40;54.80;23.80;97027.00;;;;5076917;28;20200;-83
2023/07/18 02:45:38;;;;;;;2.23;1.90;;;24.40;54.80;23.80;97027.00;;;;5080652;28;20268;-83
2023/07/18 02:48:07;;;;;;;3.60;2.43;;;24.40;54.90;23.80;97030.00;;;;5081692;28;20205;-83
2023/07/18 02:50:36;;;;;;;2.93;2.40;;;24.30;54.90;23.80;97024.00;;;;5085754;28;20199;-82
2023/07/18 02:53:03;;;;;;;3.73;2.13;;;24.30;55.00;23.70;97025.00;;;;5082825;28;20228;-83
2023/07/18 02:55:31;;;;;;;4.43;2.17;;;24.30;55.00;23.70;97030.00;;;;5066027;28;20688;-83
2023/07/18 02:57:58;;;;;;;3.47;2.23;;;24.30;55.10;23.70;97031.00;;;;5080584;28;20207;-83
2023/07/18 03:00:26;;;;;;;2.47;2.00;;;24.30;55.40;23.70;97030.00;;;;5085200;28;20195;-83
2023/07/18 03:02:54;;;;;;;3.47;2.10;;;24.20;55.50;23.70;97030.00;;;;5081069;28;20669;-83
2023/07/18 03:05:23;;;;;;;3.03;2.20;;;24.20;55.50;23.70;97033.00;;;;5080081;28;20251;-83
2023/07/18 03:07:52;;;;;;;2.57;2.07;;;24.20;55.70;23.70;97035.00;;;;5078669;28;20201;-83
2023/07/18 03:10:19;;;;;;;2.90;1.90;;;24.20;55.70;23.70;97028.00;;;;5080310;28;20289;-83
2023/07/18 03:12:47;;;;;;;2.30;2.10;;;24.20;55.80;23.70;97026.00;;;;5077735;28;20763;-83
2023/07/18 03:15:16;;;;;;;3.27;2.57;;;24.20;55.90;23.60;97026.00;;;;5069219;28;20229;-83
2023/07/18 03:17:43;;;;;;;2.90;2.23;;;24.20;55.90;23.60;97034.00;;;;5076494;28;20762;-83
2023/07/18 03:20:16;;;;;;;3.47;2.00;;;24.20;56.00;23.60;97028.00;;;;5076832;28;20258;-83
2023/07/18 03:22:47;;;;;;;2.40;2.20;;;24.20;56.00;23.60;97023.00;;;;5069688;28;20206;-83
2023/07/18 03:25:15;;;;;;;3.30;2.30;;;24.10;56.10;23.60;97021.00;;;;5076268;28;20222;-83
2023/07/18 03:27:42;;;;;;;4.83;2.23;;;24.10;56.20;23.50;97017.00;;;;5076626;28;20569;-83
2023/07/18 03:30:12;;;;;;;3.57;2.53;;;24.10;56.40;23.50;97030.00;;;;5072735;28;20199;-83
2023/07/18 03:32:40;;;;;;;3.40;2.30;;;24.10;56.50;23.50;97023.00;;;;5076494;28;20212;-83
2023/07/18 03:35:10;;;;;;;3.27;2.13;;;24.00;56.60;23.50;97024.00;;;;5074363;28;20683;-82
2023/07/18 03:37:38;;;;;;;3.53;2.73;;;24.00;56.70;23.50;97024.00;;;;5075980;28;20226;-83
2023/07/18 03:40:10;;;;;;;2.50;2.20;;;24.00;56.80;23.50;97027.00;;;;5081410;28;20205;-83
2023/07/18 03:42:37;;;;;;;2.60;2.17;;;24.00;56.90;23.50;97021.00;;;;5076083;28;20281;-83
2023/07/18 03:45:06;;;;;;;3.50;3.10;;;24.00;56.80;23.50;97028.00;;;;5076510;28;20310;-83
2023/07/18 03:47:33;;;;;;;3.53;2.20;;;24.00;56.80;23.50;97028.00;;;;5077277;28;20226;-83
2023/07/18 03:50:00;;;;;;;2.40;1.90;;;24.00;56.90;23.50;97021.00;;;;5082329;28;20219;-84
2023/07/18 03:52:27;;;;;;;2.93;2.20;;;24.00;57.20;23.50;97020.00;;;;5061832;28;20210;-83
2023/07/18 03:54:55;;;;;;;11.97;2.70;;;24.00;57.40;23.50;97032.00;;;;5075231;28;20209;-83
2023/07/18 03:57:23;;;;;;;3.10;2.80;;;24.00;57.50;23.50;97023.00;;;;5080244;28;20244;-83
2023/07/18 03:59:53;;;;;;;2.67;2.47;;;24.00;57.50;23.50;97016.00;;;;5073824;28;20204;-82
2023/07/18 04:02:20;;;;;;;2.50;2.30;;;24.00;57.50;23.50;97020.00;;;;5072926;28;20192;-83
2023/07/18 04:04:47;;;;;;;2.40;2.20;;;24.00;57.70;23.50;97024.00;;;;5075060;28;20222;-83
2023/07/18 04:07:15;;;;;;;3.30;2.53;;;24.00;57.80;23.50;97022.00;;;;5080397;28;20563;-83
2023/07/18 04:09:42;;;;;;;5.53;2.00;;;24.00;57.80;23.50;97025.00;;;;5075611;28;20288;-83
2023/07/18 04:12:10;;;;;;;2.53;2.33;;;24.00;57.70;23.50;97019.00;;;;5075837;28;20205;-83
2023/07/18 04:14:39;;;;;;;3.03;2.63;;;24.00;57.60;23.50;97032.00;;;;5073539;28;20214;-83
2023/07/18 04:17:07;;;;;;;3.23;2.53;;;24.00;57.60;23.50;97021.00;;;;5075769;28;20222;-83
2023/07/18 04:19:38;;;;;;;3.90;2.33;;;24.00;57.60;23.50;97013.00;;;;5088485;28;20193;-83
2023/07/18 04:22:09;;;;;;;3.50;2.73;;;24.00;57.70;23.50;97013.00;;;;5087731;28;20255;-82
2023/07/18 04:24:37;;;;;;;4.00;2.47;;;24.00;57.70;23.50;97004.00;;;;5089258;28;20219;-80
2023/07/18 04:27:06;;;;;;;3.70;2.57;;;24.00;57.70;23.60;97007.00;;;;5090838;28;20309;-80
2023/07/18 04:29:33;;;;;;;2.77;2.20;;;24.00;57.60;23.50;97013.00;;;;5099894;28;20219;-81
2023/07/18 04:32:04;;;;;;;2.83;2.13;;;24.00;57.70;23.50;97006.00;;;;5088090;28;20689;-82
2023/07/18 04:34:31;;;;;;;2.70;2.30;;;24.10;58.00;23.50;97007.00;;;;5076717;28;20662;-81
2023/07/18 04:36:59;;;;;;;4.43;2.40;;;24.00;58.00;23.50;96998.00;;;;5066399;28;20216;-81
2023/07/18 04:39:26;;;;;;;4.07;2.67;;;24.10;58.20;23.50;97000.00;;;;5075278;28;20191;-81
2023/07/18 04:41:53;;;;;;;2.40;2.10;;;24.10;58.10;23.50;97000.00;;;;5053785;28;20199;-83
2023/07/18 04:44:21;;;;;;;2.13;1.93;;;24.10;58.10;23.50;97006.00;;;;5077519;28;20233;-82
2023/07/18 04:46:48;;;;;;;5.03;2.33;;;24.10;58.10;23.50;97001.00;;;;5077772;28;20244;-82
2023/07/18 04:49:18;;;;;;;3.17;2.40;;;24.10;58.00;23.50;96993.00;;;;5074855;28;20203;-82
2023/07/18 04:51:45;;;;;;;2.37;2.17;;;24.10;57.90;23.50;97002.00;;;;5078894;28;20669;-82
2023/07/18 04:54:12;;;;;;;2.47;2.27;;;24.10;57.80;23.50;96998.00;;;;5059079;28;20204;-81
2023/07/18 04:56:40;;;;;;;2.63;2.40;;;24.10;57.90;23.50;96992.00;;;;5077699;28;20220;-82
2023/07/18 04:59:09;;;;;;;3.23;1.93;;;24.10;58.00;23.50;96997.00;;;;5075329;28;20198;-82
2023/07/18 05:01:37;;;;;;;3.83;2.60;;;24.10;58.00;23.50;96992.00;;;;5074325;28;20225;-82
2023/07/18 05:04:05;;;;;;;3.63;2.20;;;24.10;58.20;23.50;96992.00;;;;5075353;28;20357;-82
2023/07/18 05:06:34;;;;;;;2.30;2.10;;;24.10;58.40;23.50;96992.00;;;;5075017;28;20215;-83
2023/07/18 05:09:01;;;;;;;5.43;2.40;;;24.10;58.50;23.50;96991.00;;;;5074178;28;20298;-81
2023/07/18 05:11:28;;;;;;;4.37;2.30;;;24.10;58.40;23.50;96997.00;;;;5076386;28;20577;-82
2023/07/18 05:13:55;;;;;;;3.40;2.30;;;24.10;58.50;23.50;96996.00;;;;5082376;28;20196;-82
2023/07/18 05:16:23;;;;;;;3.97;2.40;;;24.10;58.60;23.50;96990.00;;;;5074167;28;20219;-83
2023/07/18 05:18:50;;;;;;;2.17;1.97;;;24.00;58.20;23.50;96993.00;;;;5073847;28;20234;-83
2023/07/18 05:21:17;;;;;;;2.97;2.30;;;24.00;58.30;23.50;96985.00;;;;5078810;28;20552;-83
2023/07/18 05:23:46;;;;;;;4.33;2.07;;;24.00;58.40;23.50;96986.00;;;;5075132;28;20191;-81
2023/07/18 05:26:13;;;;;;;2.20;1.90;;;24.00;58.30;23.50;96983.00;;;;5074450;28;20684;-80
2023/07/18 05:28:41;;;;;;;3.67;1.93;;;24.00;58.40;23.50;96989.00;;;;5074483;28;20296;-82
2023/07/18 05:31:09;;;;;;;4.97;2.33;;;24.00;58.40;23.50;96986.00;;;;5073110;28;20689;-82
2023/07/18 05:33:36;;;;;;;3.17;2.00;;;24.00;59.10;23.50;96976.00;;;;5070077;28;20748;-82
2023/07/18 05:36:05;;;;;;;3.23;2.23;;;24.00;58.40;23.50;96977.00;;;;5069979;28;20241;-82
2023/07/18 05:38:32;;;;;;;4.80;2.63;;;24.00;58.20;23.50;96975.00;;;;5070918;28;20202;-82
2023/07/18 05:41:01;;;;;;;3.30;2.10;;;24.00;58.00;23.50;96976.00;;;;5067785;28;20196;-82
2023/07/18 05:43:28;;;;;;;4.73;2.20;;;24.00;57.80;23.50;96970.00;;;;5072379;28;20202;-82
2023/07/18 05:45:56;;;;;;;2.03;1.93;;;24.00;58.20;23.50;96968.00;;;;5071131;28;20568;-83
2023/07/18 05:48:23;;;;;;;3.63;2.37;;;24.00;57.60;23.60;96963.00;;;;5069953;28;20205;-83
2023/07/18 05:50:51;;;;;;;3.80;1.73;;;24.00;57.40;23.60;96971.00;;;;5074884;28;20199;-83
2023/07/18 05:53:18;;;;;;;3.43;1.93;;;24.00;57.20;23.60;96966.00;;;;5078838;28;20566;-82
2023/07/18 05:55:46;;;;;;;2.27;2.07;;;24.00;57.10;23.60;96972.00;;;;5082844;28;20225;-83
2023/07/18 05:58:14;;;;;;;2.80;2.23;;;24.00;57.30;23.60;96972.00;;;;5083547;28;20223;-83
2023/07/18 06:00:43;;;;;;;2.40;2.17;;;24.10;57.60;23.70;96975.00;;;;5069116;28;20690;-83
2023/07/18 06:03:10;;;;;;;3.57;1.80;;;24.10;57.70;23.70;96974.00;;;;5074306;28;20225;-83
2023/07/18 06:05:37;;;;;;;3.13;2.50;;;24.10;57.40;23.70;96965.00;;;;5054236;28;20219;-83
2023/07/18 06:08:05;;;;;;;2.50;2.30;;;24.10;57.40;23.70;96967.00;;;;5071027;28;20210;-83
2023/07/18 06:10:34;;;;;;;4.27;2.20;;;24.20;57.70;23.70;96969.00;;;;5082724;28;20237;-83
2023/07/18 06:13:01;;;;;;;2.83;2.43;;;24.20;58.00;23.80;96973.00;;;;5087366;28;20268;-83
2023/07/18 06:15:31;;;;;;;2.70;1.97;;;24.20;57.20;23.80;96963.00;;;;5082246;28;20211;-83
2023/07/18 06:17:59;;;;;;;1.90;1.80;;;24.20;57.30;23.80;96962.00;;;;5081989;28;20261;-83
2023/07/18 06:20:26;;;;;;;2.57;2.10;;;24.20;57.50;23.90;96968.00;;;;5079806;28;20265;-82
2023/07/18 06:22:54;;;;;;;3.20;1.80;;;24.20;57.30;23.90;96960.00;;;;5081412;28;20227;-84
2023/07/18 06:25:21;;;;;;;2.13;1.57;;;24.30;56.80;23.90;96960.00;;;;5079971;28;20227;-83
2023/07/18 06:27:49;;;;;;;2.20;2.00;;;24.30;56.90;24.00;96957.00;;;;5080224;28;20192;-83
2023/07/18 06:30:17;;;;;;;1.70;1.60;;;24.30;57.00;24.00;96961.00;;;;5079381;28;20741;-83
2023/07/18 06:32:45;;;;;;;3.03;2.03;;;24.40;56.70;24.00;96954.00;;;;5074317;28;20227;-83
2023/07/18 06:35:13;;;;;;;2.03;1.80;;;24.40;56.50;24.10;96952.00;;;;5081810;28;20263;-83
2023/07/18 06:37:42;;;;;;;2.20;2.00;;;24.40;56.60;24.10;96953.00;;;;5068678;28;20309;-82
2023/07/18 06:40:14;;;;;;;2.30;2.10;;;24.40;56.60;24.10;96949.00;;;;5065443;28;20260;-82
2023/07/18 06:42:41;;;;;;;2.70;1.87;;;24.50;56.40;24.20;96946.00;;;;5070731;28;20667;-83
2023/07/18 06:45:12;;;;;;;2.80;1.67;;;24.50;56.10;24.20;96945.00;;;;5092627;28;20219;-82
2023/07/18 06:47:41;;;;;;;2.13;1.93;;;24.60;55.90;24.30;96943.00;;;;5093858;28;20219;-83
2023/07/18 06:50:13;;;;;;;2.00;1.70;;;24.60;55.70;24.30;96948.00;;;;5089559;28;20195;-82
2023/07/18 06:52:41;;;;;;;2.13;1.80;;;24.70;56.10;24.40;96950.00;;;;5067182;28;20207;-82
2023/07/18 06:55:10;;;;;;;3.70;2.17;;;24.70;55.80;24.40;96952.00;;;;5081146;28;20200;-83
2023/07/18 06:57:38;;;;;;;2.70;1.53;;;24.70;55.30;24.50;96950.00;;;;5087101;28;20215;-82
2023/07/18 07:00:11;;;;;;;1.43;1.23;;;24.80;54.40;24.60;96946.00;;;;5071955;28;20227;-82
2023/07/18 07:02:38;;;;;;;2.67;1.47;;;24.90;53.90;24.70;96943.00;;;;5084275;28;20652;-83
2023/07/18 07:05:08;;;;;;;1.47;1.23;;;24.90;53.90;24.70;96946.00;;;;5076239;28;20270;-82
2023/07/18 07:07:37;;;;;;;1.83;1.40;;;25.00;53.70;24.80;96940.00;;;;5068856;28;20215;-83
2023/07/18 07:10:08;;;;;;;2.33;1.27;;;25.10;54.00;24.90;96935.00;;;;5083474;28;20281;-82
2023/07/18 07:12:36;;;;;;;2.97;1.27;;;25.10;54.20;25.00;96922.00;;;;5087621;28;20252;-82
2023/07/18 07:15:03;;;;;;;2.70;1.60;;;25.20;53.40;25.10;96926.00;;;;5076887;28;20209;-83
2023/07/18 07:17:32;;;;;;;1.70;1.60;;;25.30;53.40;25.20;96932.00;;;;5073547;28;20224;-83
2023/07/18 07:19:59;;;;;;;2.80;1.30;;;25.40;53.70;25.30;96935.00;;;;5075817;28;20269;-82
2023/07/18 07:22:28;;;;;;;2.60;1.40;;;25.50;52.90;25.50;96935.00;;;;5078089;28;20197;-83
2023/07/18 07:24:57;;;;;;;2.73;1.90;;;25.60;52.80;25.60;96928.00;;;;5077557;28;20223;-83
2023/07/18 07:27:24;;;;;;;2.73;1.50;;;25.80;53.00;25.70;96939.00;;;;5074768;28;20215;-82
2023/07/18 07:29:51;;;;;;;2.23;1.60;;;25.90;52.80;25.90;96935.00;;;;5068841;28;20262;-83
2023/07/18 07:32:19;;;;;;;4.23;2.10;;;26.00;52.50;26.00;96925.00;;;;5057110;28;20228;-83
2023/07/18 07:34:47;;;;;;;1.50;1.40;;;26.20;52.60;26.20;96931.00;;;;5072391;28;20192;-82
2023/07/18 07:37:14;;;;;;;1.90;1.70;;;26.30;52.70;26.30;96916.00;;;;5067716;28;20278;-81
2023/07/18 07:39:41;;;;;;;2.33;1.80;;;26.40;52.60;26.40;96919.00;;;;5066542;28;20196;-82
2023/07/18 07:42:10;;;;;;;1.97;1.60;;;26.60;52.60;26.60;96914.00;;;;5068960;28;20229;-82
2023/07/18 07:44:37;;;;;;;1.50;1.40;;;26.70;52.30;26.70;96910.00;;;;5071391;28;20206;-83
2023/07/18 07:47:04;;;;;;;2.77;1.50;;;26.80;52.30;26.80;96915.00;;;;5071162;28;20216;-84
2023/07/18 07:49:31;;;;;;;3.05;1.42;;;27.00;51.80;27.00;96907.00;;;;5070554;28;20295;-83
2023/07/18 07:51:59;;;;;;;2.22;1.40;;;27.10;51.20;27.10;96907.00;;;;5069166;28;20200;-82
2023/07/18 07:54:26;;;;;;;2.40;1.53;;;27.20;51.00;27.30;96908.00;;;;5070885;28;20198;-82
2023/07/18 07:56:54;;;;;;;2.40;1.50;;;27.40;50.60;27.40;96902.00;;;;5071472;28;20220;-83
2023/07/18 07:59:22;;;;;;;1.73;1.52;;;27.50;50.20;27.50;96911.00;;;;5069063;28;20203;-82
2023/07/18 08:01:50;;;;;;;1.42;1.33;;;27.60;50.00;27.70;96908.00;;;;5067830;28;20567;-83
2023/07/18 08:04:17;;;;;;;1.60;1.50;;;27.80;50.00;27.80;96906.00;;;;5069329;28;20202;-84
2023/07/18 08:06:45;;;;;;;1.30;1.20;;;27.90;49.20;27.90;96902.00;;;;5065453;28;20283;-84
2023/07/18 08:09:12;;;;;;;1.98;1.20;;;28.10;49.10;28.00;96894.00;;;;5073288;28;20196;-83
2023/07/18 08:11:39;;;;;;;2.03;0.90;;;28.10;48.70;28.10;96898.00;;;;5071001;28;20196;-83
2023/07/18 08:14:07;;;;;;;1.48;1.10;;;28.30;48.20;28.30;96893.00;;;;5070038;28;20199;-83
2023/07/18 08:16:36;;;;;;;1.38;1.20;;;28.40;48.10;28.40;96895.00;;;;5072538;28;20219;-83
2023/07/18 08:19:03;;;;;;;1.02;0.85;;;28.50;47.10;28.50;96889.00;;;;5076624;28;20222;-82
2023/07/18 08:21:30;;;;;;;1.73;1.20;;;28.70;47.90;28.70;96883.00;;;;5075894;28;20232;-82
2023/07/18 08:23:57;;;;;;;1.30;0.90;;;28.80;47.60;28.80;96887.00;;;;5082259;28;20214;-81
2023/07/18 08:26:28;;;;;;;1.13;1.02;;;28.90;47.30;28.90;96878.00;;;;5070542;28;20248;-83
2023/07/18 08:28:55;;;;;;;2.58;1.20;;;29.00;46.70;29.00;96884.00;;;;5078534;28;20188;-81
2023/07/18 08:31:27;;;;;;;1.15;1.05;;;29.20;45.90;29.20;96871.00;;;;5076415;28;20218;-84
2023/07/18 08:33:56;;;;;;;2.47;1.40;;;29.30;46.10;29.30;96869.00;;;;5078024;28;20251;-83
2023/07/18 08:36:23;;;;;;;1.77;1.60;;;29.40;46.10;29.40;96869.00;;;;5075120;28;20226;-84
2023/07/18 08:38:51;;;;;;;1.58;1.40;;;29.50;46.00;29.60;96855.00;;;;5077554;28;20192;-84
2023/07/18 08:41:20;;;;;;;2.13;1.48;;;29.70;45.70;29.70;96853.00;;;;5060674;28;20197;-84
2023/07/18 08:43:50;;;;;;;2.13;1.48;;;29.80;45.70;29.80;96846.00;;;;5080039;28;20598;-84
2023/07/18 08:46:18;;;;;;;2.55;1.40;;;29.90;45.40;30.00;96846.00;;;;5079488;28;20219;-84
2023/07/18 08:48:48;;;;;;;2.20;1.27;;;30.00;44.90;30.10;96845.00;;;;5079134;28;20193;-84
2023/07/18 08:51:17;;;;;;;1.25;1.15;;;30.20;44.40;30.30;96839.00;;;;5078296;28;20196;-85
2023/07/18 08:53:44;;;;;;;1.52;1.30;;;30.30;43.90;30.40;96844.00;;;;5074636;28;20202;-83
2023/07/18 08:56:11;;;;;;;2.63;1.60;;;30.40;44.20;30.50;96850.00;;;;5079125;28;20300;-84
2023/07/18 08:58:39;;;;;;;2.10;1.50;;;30.60;44.20;30.60;96853.00;;;;5080315;28;20241;-83
2023/07/18 09:01:08;;;;;;;2.17;1.70;;;30.70;44.10;30.70;96850.00;;;;5077361;28;20198;-84
2023/07/18 09:03:36;;;;;;;2.70;1.33;;;30.80;43.70;30.90;96846.00;;;;5077312;28;20275;-84
2023/07/18 09:06:04;;;;;;;1.42;1.33;;;30.90;42.80;31.00;96853.00;;;;5075200;28;20594;-84
2023/07/18 09:08:42;;;;;;;2.60;1.60;;;31.00;43.00;31.10;96841.00;;;;5079678;28;20268;-84
2023/07/18 09:11:12;;;;;;;1.50;1.30;;;31.10;42.40;31.20;96836.00;;;;5079896;28;20206;-84
2023/07/18 09:13:41;;;;;;;1.50;1.40;;;31.30;43.70;31.30;96834.00;;;;5080232;28;20200;-84
2023/07/18 09:16:17;;;;;;;3.47;1.83;;;31.40;42.80;31.40;96835.00;;;;5081581;28;20212;-84
2023/07/18 09:18:48;;;;;;;1.75;1.50;;;31.50;42.40;31.60;96831.00;;;;5081546;28;20938;-84
2023/07/18 09:21:16;;;;;;;1.67;1.15;;;31.60;43.00;31.70;96830.00;;;;5082715;28;20192;-84
2023/07/18 09:23:46;;;;;;;2.13;1.45;;;31.70;42.70;31.80;96824.00;;;;5083196;28;20200;-84
2023/07/18 09:26:16;;;;;;;2.83;1.60;;;31.80;42.20;31.90;96818.00;;;;5080978;28;20227;-84
2023/07/18 09:28:44;;;;;;;3.05;1.60;;;31.90;42.10;32.00;96823.00;;;;5093610;28;20207;-84
2023/07/18 09:31:18;;;;;;;2.45;1.50;;;32.00;42.10;32.10;96826.00;;;;5086937;28;20215;-84
2023/07/18 09:33:50;;;;;;;2.10;1.40;;;32.20;41.80;32.20;96821.00;;;;5080179;28;20279;-83
2023/07/18 09:36:20;;;;;;;2.10;1.40;;;32.30;41.30;32.30;96811.00;;;;5060066;28;20219;-83
2023/07/18 09:38:51;;;;;;;1.67;1.58;;;32.40;41.30;32.50;96816.00;;;;5074245;28;20202;-85
2023/07/18 09:41:21;;;;;;;1.30;1.20;;;32.50;41.00;32.60;96814.00;;;;5072713;28;20267;-85
2023/07/18 09:43:48;;;;;;;1.48;1.38;;;32.70;41.40;32.70;96807.00;;;;5072182;28;20207;-84
2023/07/18 09:46:17;;;;;;;1.45;1.35;;;32.90;41.20;32.80;96798.00;;;;5072647;28;20295;-85
2023/07/18 09:48:47;;;;;;;1.40;1.30;;;33.00;40.80;33.00;96799.00;;;;5071845;28;20192;-83
2023/07/18 09:51:20;;;;;;;1.52;1.42;;;33.20;40.70;33.10;96796.00;;;;5069325;28;20657;-84
2023/07/18 09:53:49;;;;;;;3.63;1.67;;;33.40;40.80;33.30;96795.00;;;;5073202;28;20220;-83
2023/07/18 09:56:18;;;;;;;2.03;1.50;;;33.60;39.90;33.40;96790.00;;;;5074045;28;20230;-83
2023/07/18 09:58:47;;;;;;;2.88;1.30;;;33.80;40.10;33.50;96801.00;;;;5087004;28;20533;-83
2023/07/18 10:01:20;;;;;;;1.40;1.30;;;33.90;39.90;33.60;96790.00;;;;5067796;28;20195;-83
2023/07/18 10:03:49;;;;;;;1.85;1.50;;;34.10;40.00;33.70;96783.00;;;;5073502;28;20256;-83
2023/07/18 10:06:18;;;;;;;3.20;1.77;;;34.30;40.30;33.90;96789.00;;;;5073525;28;20224;-83
2023/07/18 10:08:50;;;;;;;2.25;1.65;;;34.50;40.30;34.00;96791.00;;;;5073156;28;20204;-84
2023/07/18 10:11:17;;;;;;;2.05;1.55;;;34.70;39.80;34.10;96793.00;;;;5068329;28;20215;-83
2023/07/18 10:14:13;;;;;;;1.50;1.40;;;34.80;39.60;34.20;96787.00;;;;5068410;28;20200;-85
2023/07/18 10:16:43;;;;;;;1.38;1.27;;;35.10;38.80;34.40;96794.00;;;;5062506;28;20245;-84
2023/07/18 10:19:19;;;;;;;2.63;1.50;;;35.30;39.30;34.50;96795.00;;;;5070274;28;20626;-84
2023/07/18 10:21:49;;;;;;;2.20;1.45;;;35.40;38.40;34.50;96793.00;;;;5069376;28;20202;-84
2023/07/18 10:24:32;;;;;;;3.05;1.73;;;35.60;39.30;34.70;96788.00;;;;5073375;28;20192;-84
2023/07/18 10:27:09;;;;;;;2.58;1.63;;;35.70;38.30;34.80;96782.00;;;;5068476;28;20227;-84
2023/07/18 10:29:39;;;;;;;2.45;1.40;;;35.80;38.90;34.90;96785.00;;;;5072413;28;20191;-84
2023/07/18 10:32:11;;;;;;;2.17;1.50;;;36.00;38.10;35.00;96781.00;;;;5061307;28;20188;-85
2023/07/18 10:34:40;;;;;;;1.60;1.40;;;36.00;37.90;35.10;96783.00;;;;5068443;28;20577;-85
2023/07/18 10:37:08;;;;;;;1.63;1.45;;;36.10;38.20;35.10;96777.00;;;;5071998;28;20307;-84
2023/07/18 10:39:40;;;;;;;1.75;1.50;;;36.10;38.40;35.20;96778.00;;;;5071391;28;20203;-83
2023/07/18 10:42:20;;;;;;;2.60;1.83;;;36.20;37.60;35.30;96777.00;;;;5065128;28;20276;-83
2023/07/18 10:44:49;;;;;;;1.80;1.70;;;36.20;37.20;35.30;96780.00;;;;5069339;28;20207;-83
2023/07/18 10:47:18;;;;;;;1.58;1.48;;;36.30;37.30;35.40;96780.00;;;;5069350;28;20227;-83
2023/07/18 10:49:48;;;;;;;1.70;1.60;;;36.30;37.70;35.40;96776.00;;;;5067097;28;20279;-83
2023/07/18 10:52:16;;;;;;;2.00;1.80;;;36.30;37.60;35.50;96772.00;;;;5070316;28;20215;-84
2023/07/18 10:54:53;;;;;;;2.20;1.52;;;36.20;37.00;35.50;96765.00;;;;5070813;28;20684;-84
2023/07/18 10:57:28;;;;;;;4.65;2.42;;;36.20;36.80;35.50;96770.00;;;;5076172;28;20231;-84
2023/07/18 10:59:59;;;;;;;1.33;1.23;;;36.20;36.10;35.50;96762.00;;;;5072828;28;20195;-82